Time;durP1;ratioP1;P1;durP2;ratioP2;P2;SDS_P1;SDS_P2;PMS_P1;PMS_P2;Temp;Humidity;BMP_temperature;BMP_pressure;BME280_temperature;BME280_humidity;BME280_pressure;Samples;Min_cycle;Max_cycle;Signal;HPM_P1;HPM_P2
2022/11/02 00:00:30;;;;;;;16.02;10.18;;;;;;;;;;4864698;29;20097;-73
2022/11/02 00:02:57;;;;;;;30.30;11.40;;;;;;;;;;4874645;29;20048;-73
2022/11/02 00:05:24;;;;;;;20.02;9.32;;;;;;;;;;4876731;29;20049;-73
2022/11/02 00:07:53;;;;;;;23.17;9.93;;;;;;;;;;4877690;29;20069;-73
2022/11/02 00:10:21;;;;;;;14.68;9.30;;;;;;;;;;4876002;29;20051;-74
2022/11/02 00:12:49;;;;;;;25.60;8.98;;;;;;;;;;4877265;29;20555;-73
2022/11/02 00:15:17;;;;;;;46.33;9.98;;;;;;;;;;4877995;29;20377;-74
2022/11/02 00:17:48;;;;;;;21.88;8.20;;;;;;;;;;4877585;29;20502;-74
2022/11/02 00:20:17;;;;;;;36.75;8.27;;;;;;;;;;4860080;29;20042;-74
2022/11/02 00:22:46;;;;;;;9.68;7.25;;;;;;;;;;4875580;29;20059;-74
2022/11/02 00:25:14;;;;;;;23.13;7.75;;;;;;;;;;4869208;29;20557;-74
2022/11/02 00:27:42;;;;;;;36.42;9.50;;;;;;;;;;4879961;29;20116;-74
2022/11/02 00:30:10;;;;;;;26.90;9.60;;;;;;;;;;4876363;29;20049;-74
2022/11/02 00:32:37;;;;;;;40.30;8.90;;;;;;;;;;4838992;29;20061;-74
2022/11/02 00:35:05;;;;;;;34.95;10.07;;;;;;;;;;4863192;29;20109;-74
2022/11/02 00:37:32;;;;;;;17.63;8.45;;;;;;;;;;4853172;29;20041;-74
2022/11/02 00:40:05;;;;;;;21.65;8.45;;;;;;;;;;4872521;29;20059;-73
2022/11/02 00:42:33;;;;;;;25.60;9.32;;;;;;;;;;4860323;29;20590;-73
2022/11/02 00:45:00;;;;;;;29.13;9.20;;;;;;;;;;4829573;29;20132;-73
2022/11/02 00:47:28;;;;;;;27.73;8.45;;;;;;;;;;4870602;29;20065;-73
2022/11/02 00:49:55;;;;;;;34.25;9.93;;;;;;;;;;4875066;29;20049;-73
2022/11/02 00:52:23;;;;;;;16.33;8.52;;;;;;;;;;4842845;29;20066;-73
2022/11/02 00:54:51;;;;;;;28.48;8.52;;;;;;;;;;4860034;29;20049;-73
2022/11/02 00:57:19;;;;;;;13.48;9.00;;;;;;;;;;4859558;29;20053;-73
2022/11/02 00:59:46;;;;;;;17.48;8.38;;;;;;;;;;4854478;29;20059;-73
2022/11/02 01:02:15;;;;;;;12.68;8.88;;;;;;;;;;4860433;29;20057;-74
2022/11/02 01:04:43;;;;;;;15.90;8.75;;;;;;;;;;4845400;29;20065;-73
2022/11/02 01:07:11;;;;;;;17.40;8.82;;;;;;;;;;4847226;29;20072;-74
2022/11/02 01:09:38;;;;;;;11.20;7.97;;;;;;;;;;4868449;29;20139;-74
2022/11/02 01:12:06;;;;;;;14.75;8.43;;;;;;;;;;4873102;29;20043;-75
2022/11/02 01:14:33;;;;;;;14.27;8.90;;;;;;;;;;4858408;29;20759;-73
2022/11/02 01:17:00;;;;;;;17.50;8.90;;;;;;;;;;4876690;29;20064;-74
2022/11/02 01:19:28;;;;;;;11.85;8.48;;;;;;;;;;4860464;29;20502;-73
2022/11/02 01:21:56;;;;;;;16.38;9.15;;;;;;;;;;4877477;29;20088;-74
2022/11/02 01:24:23;;;;;;;16.02;9.35;;;;;;;;;;4860204;29;20045;-75
2022/11/02 01:26:51;;;;;;;12.57;8.18;;;;;;;;;;4860975;29;20052;-73
2022/11/02 01:29:19;;;;;;;11.07;7.68;;;;;;;;;;4875308;29;20045;-74
2022/11/02 01:31:47;;;;;;;15.05;7.57;;;;;;;;;;4872029;29;20093;-73
2022/11/02 01:34:16;;;;;;;10.68;7.90;;;;;;;;;;4875842;29;20048;-73
2022/11/02 01:36:45;;;;;;;18.30;6.85;;;;;;;;;;4861553;29;20074;-74
2022/11/02 01:39:12;;;;;;;19.25;8.27;;;;;;;;;;4874511;29;20263;-72
2022/11/02 01:41:40;;;;;;;11.70;7.70;;;;;;;;;;4857512;29;20288;-74
2022/11/02 01:44:31;;;;;;;30.42;8.75;;;;;;;;;;4864237;29;20258;-73
2022/11/02 01:47:01;;;;;;;17.65;7.00;;;;;;;;;;4843938;29;20053;-73
2022/11/02 01:49:31;;;;;;;23.80;7.28;;;;;;;;;;4872842;29;20053;-73
2022/11/02 01:52:11;;;;;;;13.35;7.40;;;;;;;;;;4873021;29;20168;-73
2022/11/02 01:54:58;;;;;;;14.20;8.02;;;;;;;;;;4843955;29;20465;-73
2022/11/02 01:57:27;;;;;;;18.00;7.15;;;;;;;;;;4872974;29;20042;-73
2022/11/02 01:59:58;;;;;;;27.17;8.35;;;;;;;;;;4860758;29;20045;-74
2022/11/02 02:02:27;;;;;;;12.73;6.20;;;;;;;;;;4859462;29;20436;-73
2022/11/02 02:05:02;;;;;;;21.08;7.40;;;;;;;;;;4859234;29;20152;-73
2022/11/02 02:07:30;;;;;;;7.88;6.85;;;;;;;;;;4857941;29;20113;-72
2022/11/02 02:09:58;;;;;;;17.52;7.97;;;;;;;;;;4873951;29;20049;-73
2022/11/02 02:12:25;;;;;;;17.98;6.85;;;;;;;;;;4872423;29;20057;-73
2022/11/02 02:14:54;;;;;;;7.30;6.63;;;;;;;;;;4848770;29;20049;-72
2022/11/02 02:17:45;;;;;;;11.25;7.47;;;;;;;;;;4873607;29;20723;-74
2022/11/02 02:20:15;;;;;;;12.95;7.50;;;;;;;;;;4856478;29;20041;-73
2022/11/02 02:22:46;;;;;;;11.85;6.45;;;;;;;;;;4856021;29;20116;-73
2022/11/02 02:25:14;;;;;;;8.80;6.63;;;;;;;;;;4856169;29;20329;-73
2022/11/02 02:27:48;;;;;;;15.85;6.75;;;;;;;;;;4839380;23;20064;31
2022/11/02 02:30:17;;;;;;;6.88;6.28;;;;;;;;;;4848015;29;20062;-80
2022/11/02 02:32:48;;;;;;;9.82;6.63;;;;;;;;;;4849066;29;20401;-80
2022/11/02 02:35:20;;;;;;;11.75;6.55;;;;;;;;;;4841986;29;20056;-80
2022/11/02 02:37:47;;;;;;;8.88;6.38;;;;;;;;;;4811692;29;20065;-80
2022/11/02 02:40:24;;;;;;;10.25;6.68;;;;;;;;;;4823542;29;20103;-81
2022/11/02 02:42:53;;;;;;;9.77;8.00;;;;;;;;;;4842521;29;20141;-74
2022/11/02 02:45:29;;;;;;;11.80;6.95;;;;;;;;;;4837439;29;20121;-74
2022/11/02 02:48:10;;;;;;;12.35;7.13;;;;;;;;;;4833685;29;20085;-74
2022/11/02 02:50:38;;;;;;;;;;;;;;;;;;4843943;29;20058;-73
2022/11/02 02:53:06;;;;;;;15.35;6.75;;;;;;;;;;4836676;29;20389;-73
2022/11/02 02:55:36;;;;;;;19.42;6.78;;;;;;;;;;4820452;29;20161;-73
2022/11/02 02:58:06;;;;;;;12.90;6.53;;;;;;;;;;4837770;29;20102;-75
2022/11/02 03:00:35;;;;;;;21.25;7.80;;;;;;;;;;4804776;29;20081;-73
2022/11/02 03:03:04;;;;;;;9.65;6.22;;;;;;;;;;4834718;29;20057;-74
2022/11/02 03:05:35;;;;;;;12.20;6.68;;;;;;;;;;4818668;29;20053;-74
2022/11/02 03:08:08;;;;;;;6.95;6.32;;;;;;;;;;4823807;29;20054;-74
2022/11/02 03:10:42;;;;;;;12.38;6.30;;;;;;;;;;4820404;29;20049;-74
2022/11/02 03:13:14;;;;;;;7.28;6.47;;;;;;;;;;4820765;29;20080;-74
2022/11/02 03:15:52;;;;;;;10.70;6.38;;;;;;;;;;4835379;29;20041;-74
2022/11/02 03:18:26;;;;;;;14.02;6.90;;;;;;;;;;4838494;29;20103;-74
2022/11/02 03:20:58;;;;;;;12.75;5.70;;;;;;;;;;4835373;29;20050;-74
2022/11/02 03:23:26;;;;;;;15.63;6.60;;;;;;;;;;4819861;29;20430;-74
2022/11/02 03:26:05;;;;;;;9.38;5.85;;;;;;;;;;4836199;29;20062;-75
2022/11/02 03:28:41;;;;;;;6.10;5.60;;;;;;;;;;4806321;29;20056;-73
2022/11/02 03:31:19;;;;;;;7.47;5.68;;;;;;;;;;4821407;29;20061;-73
2022/11/02 03:34:00;;;;;;;7.13;6.22;;;;;;;;;;4823416;29;20077;-73
2022/11/02 03:36:32;;;;;;;9.93;6.90;;;;;;;;;;4804949;29;20081;-74
2022/11/02 03:39:03;;;;;;;12.20;6.25;;;;;;;;;;4838936;29;20054;-74
2022/11/02 03:41:31;;;;;;;12.95;5.85;;;;;;;;;;4852151;29;20034;-73
2022/11/02 03:44:03;;;;;;;6.43;5.90;;;;;;;;;;4824692;29;20121;-73
2022/11/02 03:46:34;;;;;;;13.07;6.40;;;;;;;;;;4823991;29;20125;-73
2022/11/02 03:49:05;;;;;;;10.90;6.53;;;;;;;;;;4849710;29;20125;-73
2022/11/02 03:51:37;;;;;;;12.35;6.53;;;;;;;;;;4825759;29;20049;-73
2022/11/02 03:54:08;;;;;;;6.88;6.28;;;;;;;;;;4839369;29;20622;-73
2022/11/02 03:56:39;;;;;;;8.20;5.60;;;;;;;;;;4825641;29;20423;-74
2022/11/02 03:59:07;;;;;;;7.80;7.00;;;;;;;;;;4819039;29;20054;-74
2022/11/02 04:01:39;;;;;;;12.23;6.28;;;;;;;;;;4852124;29;20091;-74
2022/11/02 04:04:07;;;;;;;20.77;8.32;;;;;;;;;;4824922;29;20064;-74
2022/11/02 04:06:35;;;;;;;7.55;6.40;;;;;;;;;;4823601;29;20069;-74
2022/11/02 04:09:03;;;;;;;10.90;6.68;;;;;;;;;;4811447;29;20579;-74
2022/11/02 04:19:56;;;;;;;16.17;7.18;;;;;;;;;;4823965;29;20384;-73
2022/11/02 04:25:15;;;;;;;8.15;6.40;;;;;;;;;;4831866;29;20060;-74
2022/11/02 04:27:49;;;;;;;9.77;7.43;;;;;;;;;;4808540;29;20122;-74
2022/11/02 04:30:22;;;;;;;11.27;6.80;;;;;;;;;;4838124;29;20060;-74
2022/11/02 04:36:01;;;;;;;10.40;8.13;;;;;;;;;;4784882;29;20433;-74
2022/11/02 04:38:39;;;;;;;13.55;7.93;;;;;;;;;;4809482;29;20077;-74
2022/11/02 04:41:41;;;;;;;14.80;7.90;;;;;;;;;;4806967;29;20053;-74
2022/11/02 04:44:38;;;;;;;11.25;8.20;;;;;;;;;;4835253;29;20077;-74
2022/11/02 04:47:13;;;;;;;12.63;7.80;;;;;;;;;;4821092;29;20068;-75
2022/11/02 04:49:40;;;;;;;10.38;7.10;;;;;;;;;;4821934;29;20053;-73
2022/11/02 04:52:13;;;;;;;12.27;7.63;;;;;;;;;;4825647;29;20058;-74
2022/11/02 04:54:45;;;;;;;7.28;6.68;;;;;;;;;;4828227;29;20168;-74
2022/11/02 04:57:13;;;;;;;7.22;6.57;;;;;;;;;;4806134;29;20046;-74
2022/11/02 04:59:40;;;;;;;7.15;6.55;;;;;;;;;;4839443;29;20587;-75
2022/11/02 05:02:07;;;;;;;7.85;7.05;;;;;;;;;;4807700;29;20050;-75
2022/11/02 05:04:35;;;;;;;7.80;6.70;;;;;;;;;;4806220;29;20102;-74
2022/11/02 05:07:06;;;;;;;9.63;7.05;;;;;;;;;;4805439;29;20173;-74
2022/11/02 05:09:35;;;;;;;;;;;;;;;;;;4822429;29;20049;-74
2022/11/02 05:12:04;;;;;;;6.90;5.45;;;;;;;;;;4822849;29;19924;-74
2022/11/02 05:14:32;;;;;;;6.80;6.10;;;;;;;;;;4837038;29;20112;-74
2022/11/02 05:17:00;;;;;;;6.93;6.32;;;;;;;;;;4810184;29;20058;-74
2022/11/02 05:19:28;;;;;;;7.75;6.88;;;;;;;;;;4809749;29;20384;-74
2022/11/02 05:21:55;;;;;;;7.50;6.80;;;;;;;;;;4839995;29;20050;-74
2022/11/02 05:24:24;;;;;;;6.93;6.28;;;;;;;;;;4825781;29;20094;-74
2022/11/02 05:26:51;;;;;;;7.68;6.93;;;;;;;;;;4836919;29;20129;-74
2022/11/02 05:29:22;;;;;;;9.18;6.82;;;;;;;;;;4836224;29;20072;-75
2022/11/02 05:31:52;;;;;;;9.77;6.80;;;;;;;;;;4848277;29;20507;-74
2022/11/02 05:34:19;;;;;;;7.88;7.10;;;;;;;;;;4837590;29;20098;-74
2022/11/02 05:36:48;;;;;;;11.25;7.93;;;;;;;;;;4814548;29;20046;-74
2022/11/02 05:39:16;;;;;;;8.45;7.43;;;;;;;;;;4821979;29;20079;-74
2022/11/02 05:41:43;;;;;;;11.30;7.18;;;;;;;;;;4835603;29;20034;-74
2022/11/02 05:44:10;;;;;;;8.25;7.30;;;;;;;;;;4821880;29;20279;-75
2022/11/02 05:46:39;;;;;;;7.70;6.88;;;;;;;;;;4835747;29;20531;-74
2022/11/02 05:49:06;;;;;;;9.18;8.23;;;;;;;;;;4832545;29;20049;-75
2022/11/02 05:51:33;;;;;;;8.45;7.20;;;;;;;;;;4818089;29;20057;-75
2022/11/02 05:54:01;;;;;;;7.57;6.88;;;;;;;;;;4842778;29;20073;-74
2022/11/02 05:56:28;;;;;;;7.50;6.80;;;;;;;;;;4843750;29;20057;-74
2022/11/02 05:58:56;;;;;;;8.65;7.10;;;;;;;;;;4840849;29;20578;-74
2022/11/02 06:01:23;;;;;;;8.38;7.32;;;;;;;;;;4807101;29;20058;-74
2022/11/02 06:03:51;;;;;;;8.88;7.18;;;;;;;;;;4831251;29;20049;-75
2022/11/02 06:06:20;;;;;;;8.23;6.85;;;;;;;;;;4821574;29;20110;-74
2022/11/02 06:08:47;;;;;;;8.73;7.65;;;;;;;;;;4836229;29;20570;-73
2022/11/02 06:11:15;;;;;;;8.27;7.22;;;;;;;;;;4817663;29;20669;-74
2022/11/02 06:13:42;;;;;;;11.48;7.10;;;;;;;;;;4835052;29;20422;-74
2022/11/02 06:16:10;;;;;;;9.00;7.28;;;;;;;;;;4840919;29;20061;-74
2022/11/02 06:18:38;;;;;;;7.45;6.72;;;;;;;;;;4843563;29;20046;-74
2022/11/02 06:21:05;;;;;;;7.75;6.82;;;;;;;;;;4845374;29;20414;-73
2022/11/02 06:23:33;;;;;;;8.48;7.65;;;;;;;;;;4841004;29;20624;-73
2022/11/02 06:26:00;;;;;;;9.27;8.10;;;;;;;;;;4848892;29;20532;-74
2022/11/02 06:28:28;;;;;;;8.45;7.22;;;;;;;;;;4837567;29;20499;-74
2022/11/02 06:30:56;;;;;;;9.18;8.07;;;;;;;;;;4805304;29;20092;-73
2022/11/02 06:33:23;;;;;;;9.27;7.85;;;;;;;;;;4800127;29;20046;-75
2022/11/02 06:35:51;;;;;;;10.40;7.70;;;;;;;;;;4843062;29;20127;-74
2022/11/02 06:38:19;;;;;;;8.57;6.93;;;;;;;;;;4841174;29;20521;-73
2022/11/02 06:41:13;;;;;;;8.38;6.38;;;;;;;;;;4840270;29;20049;-72
2022/11/02 06:43:41;;;;;;;9.65;7.15;;;;;;;;;;4824369;29;20065;-73
2022/11/02 06:46:08;;;;;;;9.02;6.97;;;;;;;;;;4822074;29;20218;-73
2022/11/02 06:48:35;;;;;;;7.82;7.00;;;;;;;;;;4828043;29;20042;-74
2022/11/02 06:51:05;;;;;;;7.25;6.65;;;;;;;;;;4841968;29;20103;-73
2022/11/02 06:53:32;;;;;;;7.80;7.00;;;;;;;;;;4842666;29;20629;-73
2022/11/02 06:56:00;;;;;;;9.85;8.55;;;;;;;;;;4843059;29;20538;-73
2022/11/02 06:58:27;;;;;;;9.40;7.07;;;;;;;;;;4837838;29;20042;-73
2022/11/02 07:00:59;;;;;;;7.63;6.97;;;;;;;;;;4840964;29;20037;-73
2022/11/02 07:03:27;;;;;;;8.07;6.72;;;;;;;;;;4842336;29;20473;-73
2022/11/02 07:05:54;;;;;;;8.30;6.32;;;;;;;;;;4844956;29;20091;-74
2022/11/02 07:08:22;;;;;;;7.30;6.05;;;;;;;;;;4840678;29;20585;-73
2022/11/02 07:10:49;;;;;;;9.88;6.63;;;;;;;;;;4846180;29;20042;-73
2022/11/02 07:13:17;;;;;;;7.20;6.22;;;;;;;;;;4833679;29;20042;-74
2022/11/02 07:15:44;;;;;;;6.30;5.75;;;;;;;;;;4837151;29;20446;-73
2022/11/02 07:18:12;;;;;;;6.30;5.80;;;;;;;;;;4838037;29;20318;-73
2022/11/02 07:20:39;;;;;;;7.05;6.43;;;;;;;;;;4829280;29;20048;-73
2022/11/02 07:23:07;;;;;;;8.20;7.40;;;;;;;;;;4822265;29;20510;-74
2022/11/02 07:25:35;;;;;;;8.13;7.32;;;;;;;;;;4840728;29;20456;-72
2022/11/02 07:28:03;;;;;;;7.78;7.07;;;;;;;;;;4827544;29;20048;-73
2022/11/02 07:30:32;;;;;;;8.18;6.97;;;;;;;;;;4838397;29;20054;-73
2022/11/02 07:33:00;;;;;;;10.65;7.88;;;;;;;;;;4832793;29;20053;-73
2022/11/02 07:35:28;;;;;;;9.30;7.90;;;;;;;;;;4830036;29;20669;-73
2022/11/02 07:37:59;;;;;;;9.77;8.77;;;;;;;;;;4831284;29;20140;-73
2022/11/02 07:40:27;;;;;;;8.98;7.65;;;;;;;;;;4833990;29;20050;-73
2022/11/02 07:42:55;;;;;;;9.90;8.00;;;;;;;;;;4836869;29;20042;-73
2022/11/02 07:45:32;;;;;;;9.15;8.25;;;;;;;;;;4804089;29;20715;-74
2022/11/02 07:47:59;;;;;;;8.50;7.63;;;;;;;;;;4835465;29;20360;-73
2022/11/02 07:50:27;;;;;;;7.95;7.18;;;;;;;;;;4818441;29;20060;-73
2022/11/02 07:52:56;;;;;;;10.07;8.15;;;;;;;;;;4817495;29;20137;-73
2022/11/02 07:55:24;;;;;;;8.75;7.50;;;;;;;;;;4835180;29;20599;-73
2022/11/02 07:57:56;;;;;;;7.80;6.72;;;;;;;;;;4821943;29;20045;-72
2022/11/02 08:00:24;;;;;;;7.85;6.80;;;;;;;;;;4835780;29;20506;-73
2022/11/02 08:02:58;;;;;;;9.60;7.18;;;;;;;;;;4829741;29;20129;-74
2022/11/02 08:05:27;;;;;;;7.88;7.18;;;;;;;;;;4844433;29;20514;-74
2022/11/02 08:08:06;;;;;;;12.07;8.75;;;;;;;;;;4841180;29;20061;-73
2022/11/02 08:10:34;;;;;;;9.48;8.10;;;;;;;;;;4826853;29;20165;-73
2022/11/02 08:13:07;;;;;;;9.57;8.15;;;;;;;;;;4834641;29;20077;-73
2022/11/02 08:15:34;;;;;;;9.38;8.35;;;;;;;;;;4833923;29;20071;-73
2022/11/02 08:18:08;;;;;;;9.43;8.52;;;;;;;;;;4807394;29;20041;-73
2022/11/02 08:20:35;;;;;;;10.98;8.98;;;;;;;;;;4837401;29;20080;-73
2022/11/02 08:23:04;;;;;;;9.82;8.80;;;;;;;;;;4833381;29;20038;-73
2022/11/02 08:25:31;;;;;;;11.82;8.82;;;;;;;;;;4837226;29;20102;-73
2022/11/02 08:27:59;;;;;;;13.05;9.73;;;;;;;;;;4835812;29;20079;-75
2022/11/02 08:30:27;;;;;;;11.43;9.25;;;;;;;;;;4807017;29;20063;-72
2022/11/02 08:32:54;;;;;;;13.77;9.80;;;;;;;;;;4807888;29;20149;-74
2022/11/02 08:35:23;;;;;;;11.43;9.55;;;;;;;;;;4804793;29;20061;-73
2022/11/02 08:37:54;;;;;;;18.80;9.82;;;;;;;;;;4839882;29;20090;-71
2022/11/02 08:40:22;;;;;;;13.23;9.05;;;;;;;;;;4831995;29;20046;-71
2022/11/02 08:42:49;;;;;;;14.00;8.82;;;;;;;;;;4846253;23;20061;-76
2022/11/02 08:45:16;;;;;;;11.88;9.05;;;;;;;;;;4853362;29;20121;-77
2022/11/02 08:47:44;;;;;;;11.00;8.90;;;;;;;;;;4852425;29;20053;-76
2022/11/02 08:50:11;;;;;;;12.63;9.32;;;;;;;;;;4855114;29;20060;-76
2022/11/02 08:52:38;;;;;;;12.82;9.30;;;;;;;;;;4889226;23;20116;-71
2022/11/02 08:55:08;;;;;;;12.45;8.93;;;;;;;;;;4904876;29;20075;-73
2022/11/02 08:57:48;;;;;;;15.50;9.20;;;;;;;;;;4906875;29;20460;-71
2022/11/02 09:00:16;;;;;;;11.93;9.75;;;;;;;;;;4911453;29;20482;-71
2022/11/02 09:02:43;;;;;;;18.67;10.88;;;;;;;;;;4899748;29;20050;-74
2022/11/02 09:05:11;;;;;;;17.13;10.32;;;;;;;;;;4919278;29;20047;-74
2022/11/02 09:07:38;;;;;;;14.77;9.98;;;;;;;;;;4904355;29;20070;-74
2022/11/02 09:10:06;;;;;;;13.85;10.20;;;;;;;;;;4905067;29;20147;-74
2022/11/02 09:12:33;;;;;;;15.27;10.05;;;;;;;;;;4901465;29;20107;-74
2022/11/02 09:15:01;;;;;;;14.52;9.63;;;;;;;;;;4906508;29;20040;-73
2022/11/02 09:17:28;;;;;;;13.07;9.18;;;;;;;;;;4899127;29;20504;-74
2022/11/02 09:19:56;;;;;;;11.77;8.95;;;;;;;;;;4906669;29;20053;-74
2022/11/02 09:22:23;;;;;;;14.57;9.65;;;;;;;;;;4883679;29;20040;-74
2022/11/02 09:24:50;;;;;;;16.17;8.98;;;;;;;;;;4892916;29;20047;-73
2022/11/02 09:27:17;;;;;;;17.05;10.35;;;;;;;;;;4907298;29;20044;-74
2022/11/02 09:29:45;;;;;;;14.63;9.85;;;;;;;;;;4902259;29;20047;-74
2022/11/02 09:32:12;;;;;;;14.32;11.02;;;;;;;;;;4909893;29;20054;-74
2022/11/02 09:34:39;;;;;;;12.98;9.23;;;;;;;;;;4912285;29;20049;-74
2022/11/02 09:37:07;;;;;;;13.25;10.18;;;;;;;;;;4910188;29;20036;-72
2022/11/02 09:39:34;;;;;;;19.90;10.98;;;;;;;;;;4890328;29;20555;-71
2022/11/02 09:42:06;;;;;;;13.25;9.07;;;;;;;;;;4887236;29;20081;-71
2022/11/02 09:44:51;;;;;;;15.10;9.77;;;;;;;;;;4913148;29;20051;-71
2022/11/02 09:51:08;;;;;;;11.48;8.55;;;;;;;;;;4882843;23;20209;-82
2022/11/02 09:53:47;;;;;;;18.98;10.93;;;;;;;;;;4886370;29;20048;-82
2022/11/02 09:56:18;;;;;;;15.77;8.98;;;;;;;;;;4887790;29;20101;-81
2022/11/02 09:58:48;;;;;;;15.45;9.85;;;;;;;;;;4871051;29;20052;-82
2022/11/02 10:01:40;;;;;;;14.15;9.35;;;;;;;;;;4860767;29;20093;-82
2022/11/02 10:04:14;;;;;;;12.70;9.23;;;;;;;;;;4872904;29;20052;-83
2022/11/02 10:06:44;;;;;;;15.38;9.52;;;;;;;;;;4881019;29;20065;-84
2022/11/02 10:09:16;;;;;;;13.43;9.50;;;;;;;;;;4863567;29;20048;-83
2022/11/02 10:11:49;;;;;;;11.00;8.50;;;;;;;;;;4879196;29;20049;-83
2022/11/02 10:14:22;;;;;;;11.82;8.63;;;;;;;;;;4878471;29;20136;-83
2022/11/02 10:16:57;;;;;;;13.25;10.25;;;;;;;;;;4863073;29;20071;-83
2022/11/02 10:19:25;;;;;;;14.00;9.70;;;;;;;;;;4874539;29;20169;-83
2022/11/02 10:21:58;;;;;;;12.90;8.48;;;;;;;;;;4859706;29;20048;-83
2022/11/02 10:24:25;;;;;;;12.75;9.80;;;;;;;;;;4876249;29;20140;-84
2022/11/02 10:26:55;;;;;;;10.93;8.60;;;;;;;;;;4844181;29;20072;-83
2022/11/02 10:29:29;;;;;;;10.85;8.80;;;;;;;;;;4874151;29;20424;-83
2022/11/02 10:31:56;;;;;;;13.32;8.38;;;;;;;;;;4877323;29;20044;-84
2022/11/02 10:34:26;;;;;;;9.93;7.57;;;;;;;;;;4876821;29;20076;-83
2022/11/02 10:37:05;;;;;;;7.78;6.28;;;;;;;;;;4886208;29;20538;-83
2022/11/02 10:39:32;;;;;;;8.95;6.32;;;;;;;;;;4890112;29;20040;-84
2022/11/02 10:41:59;;;;;;;13.52;6.60;;;;;;;;;;4882895;29;20574;-83
2022/11/02 10:44:41;;;;;;;11.35;6.38;;;;;;;;;;4878311;29;20104;-83
2022/11/02 10:47:22;;;;;;;9.43;6.47;;;;;;;;;;4880216;29;20049;-84
2022/11/02 10:49:57;;;;;;;8.25;5.90;;;;;;;;;;4893206;29;20059;-84
2022/11/02 10:52:28;;;;;;;6.72;4.95;;;;;;;;;;4893071;29;20041;-84
2022/11/02 10:54:56;;;;;;;6.40;5.28;;;;;;;;;;4895409;29;20045;-84
2022/11/02 10:57:27;;;;;;;6.93;5.13;;;;;;;;;;4863394;29;20111;-84
2022/11/02 11:00:13;;;;;;;5.63;5.00;;;;;;;;;;4877273;29;20095;-83
2022/11/02 11:02:40;;;;;;;8.98;5.00;;;;;;;;;;4894252;29;20047;-84
2022/11/02 11:05:12;;;;;;;7.30;4.50;;;;;;;;;;4895745;29;20052;-84
2022/11/02 11:07:43;;;;;;;5.93;4.35;;;;;;;;;;4868538;29;20076;-84
2022/11/02 11:10:14;;;;;;;4.53;4.05;;;;;;;;;;4874960;29;20489;-84
2022/11/02 11:12:42;;;;;;;6.30;4.50;;;;;;;;;;4874742;29;20056;-84
2022/11/02 11:15:20;;;;;;;5.03;4.47;;;;;;;;;;4889808;29;20568;-84
2022/11/02 11:18:13;;;;;;;5.40;4.40;;;;;;;;;;4890860;29;20040;-84
2022/11/02 11:21:00;;;;;;;6.95;4.40;;;;;;;;;;4867432;29;20382;-84
2022/11/02 11:23:28;;;;;;;5.60;4.25;;;;;;;;;;4868409;29;20125;-84
2022/11/02 11:26:00;;;;;;;7.82;4.72;;;;;;;;;;4875417;29;20124;-84
2022/11/02 11:28:27;;;;;;;;;;;;;;;;;;4892459;29;20149;-84
2022/11/02 11:31:21;;;;;;;8.02;3.90;;;;;;;;;;4852476;29;20360;-84
2022/11/02 11:33:53;;;;;;;5.35;3.60;;;;;;;;;;4863921;29;20052;-83
2022/11/02 11:36:20;;;;;;;;;;;;;;;;;;4865505;29;20450;-84
2022/11/02 11:38:49;;;;;;;6.78;3.85;;;;;;;;;;4858570;29;19953;-85
2022/11/02 11:41:16;;;;;;;9.52;4.40;;;;;;;;;;4858285;29;20041;-85
2022/11/02 11:43:44;;;;;;;5.43;3.47;;;;;;;;;;4875226;29;20508;-84
2022/11/02 11:46:13;;;;;;;4.40;3.40;;;;;;;;;;4874008;29;20415;-84
2022/11/02 11:48:54;;;;;;;6.63;3.70;;;;;;;;;;4881047;29;20048;-84
2022/11/02 11:51:33;;;;;;;6.13;4.00;;;;;;;;;;4881368;29;20044;-84
2022/11/02 11:54:16;;;;;;;7.35;3.85;;;;;;;;;;4842896;29;20156;-84
2022/11/02 11:56:43;;;;;;;5.97;4.10;;;;;;;;;;4908434;29;20064;-84
2022/11/02 11:59:31;;;;;;;5.15;3.78;;;;;;;;;;4913230;29;20048;-84
2022/11/02 12:02:00;;;;;;;4.43;3.80;;;;;;;;;;4916416;29;20438;-84
2022/11/02 12:04:31;;;;;;;4.95;4.03;;;;;;;;;;4916587;29;20079;-85
2022/11/02 12:07:11;;;;;;;4.22;3.67;;;;;;;;;;4887173;29;20041;-84
2022/11/02 12:09:43;;;;;;;4.00;3.33;;;;;;;;;;4917297;29;20135;-85
2022/11/02 12:12:30;;;;;;;4.95;3.15;;;;;;;;;;4899508;29;20411;-84
2022/11/02 12:15:20;;;;;;;2.75;2.33;;;;;;;;;;4899626;29;20111;-85
2022/11/02 12:18:07;;;;;;;5.15;2.33;;;;;;;;;;4876652;29;20096;-86
2022/11/02 12:20:41;;;;;;;2.97;2.67;;;;;;;;;;4882905;29;20059;-84
2022/11/02 12:23:27;;;;;;;7.68;2.67;;;;;;;;;;4887000;29;20049;-85
2022/11/02 12:26:00;;;;;;;3.83;2.35;;;;;;;;;;4846790;29;20052;-84
2022/11/02 12:28:44;;;;;;;4.68;2.80;;;;;;;;;;4848721;29;20056;-85
2022/11/02 12:31:27;;;;;;;3.67;2.25;;;;;;;;;;4861774;29;20053;-85
2022/11/02 12:33:54;;;;;;;5.00;2.50;;;;;;;;;;4861719;29;20066;-85
2022/11/02 12:36:24;;;;;;;3.33;2.45;;;;;;;;;;4861743;29;20049;-84
2022/11/02 12:39:01;;;;;;;5.05;2.83;;;;;;;;;;4892101;29;20065;-85
2022/11/02 12:41:31;;;;;;;3.80;2.38;;;;;;;;;;4878977;29;20119;-85
2022/11/02 12:44:17;;;;;;;3.55;2.50;;;;;;;;;;4896149;29;20036;-85
2022/11/02 12:46:55;;;;;;;4.10;2.33;;;;;;;;;;4898464;29;20048;-85
2022/11/02 12:49:48;;;;;;;2.47;2.10;;;;;;;;;;4861088;29;20053;-85
2022/11/02 12:52:22;;;;;;;4.07;2.30;;;;;;;;;;4860896;29;20064;-85
2022/11/02 12:54:57;;;;;;;4.22;2.00;;;;;;;;;;4862907;29;20049;-84
2022/11/02 12:57:32;;;;;;;2.70;2.05;;;;;;;;;;4882270;29;20043;-85
2022/11/02 13:00:01;;;;;;;5.30;2.42;;;;;;;;;;4896038;29;20578;-85
2022/11/02 13:02:41;;;;;;;2.30;2.10;;;;;;;;;;4864545;29;20052;-85
2022/11/02 13:05:12;;;;;;;4.15;2.20;;;;;;;;;;4871201;29;20040;-85
2022/11/02 13:07:42;;;;;;;6.95;1.88;;;;;;;;;;4873493;29;20104;-85
2022/11/02 13:10:24;;;;;;;3.92;1.98;;;;;;;;;;4870714;29;20041;-85
2022/11/02 13:12:51;;;;;;;;;;;;;;;;;;4852021;29;20056;-85
2022/11/02 13:15:20;;;;;;;2.67;1.80;;;;;;;;;;4875161;29;20532;-85
2022/11/02 13:17:50;;;;;;;1.98;1.85;;;;;;;;;;4878580;29;20053;-85
2022/11/02 13:20:22;;;;;;;4.25;2.30;;;;;;;;;;4890782;29;20140;-85
2022/11/02 13:23:01;;;;;;;4.38;2.25;;;;;;;;;;4872977;29;20701;-85
2022/11/02 13:25:55;;;;;;;8.27;4.05;;;;;;;;;;4877368;29;20286;-85
2022/11/02 13:28:41;;;;;;;5.57;3.10;;;;;;;;;;4874659;29;20048;-85
2022/11/02 13:31:12;;;;;;;4.35;2.80;;;;;;;;;;4858850;29;20064;-85
2022/11/02 13:34:11;;;;;;;4.00;2.40;;;;;;;;;;4902343;24;20052;-75
2022/11/02 13:36:38;;;;;;;4.38;2.13;;;;;;;;;;4872378;29;20045;-76
2022/11/02 13:39:10;;;;;;;3.03;1.88;;;;;;;;;;4875796;29;20045;-76
2022/11/02 13:41:57;;;;;;;5.60;2.20;;;;;;;;;;4872987;29;20094;-76
2022/11/02 13:44:31;;;;;;;3.50;2.40;;;;;;;;;;4829819;29;20148;-77
2022/11/02 13:47:02;;;;;;;2.38;1.83;;;;;;;;;;4857314;29;20125;-76
2022/11/02 13:49:42;;;;;;;2.65;1.92;;;;;;;;;;4855612;29;20052;-76
2022/11/02 13:52:11;;;;;;;3.20;1.98;;;;;;;;;;4847691;29;20053;-76
2022/11/02 13:54:47;;;;;;;2.38;2.00;;;;;;;;;;4837493;29;20475;-77
2022/11/02 13:57:27;;;;;;;2.83;2.30;;;;;;;;;;4848169;29;20061;-75
2022/11/02 13:59:54;;;;;;;3.38;2.20;;;;;;;;;;4851225;29;20041;-76
2022/11/02 14:02:23;;;;;;;3.22;1.90;;;;;;;;;;4845050;29;20501;-75
2022/11/02 14:04:58;;;;;;;5.05;2.10;;;;;;;;;;4845295;29;20042;-76
2022/11/02 14:07:34;;;;;;;3.05;2.00;;;;;;;;;;4854178;29;20153;-75
2022/11/02 14:10:08;;;;;;;2.38;2.17;;;;;;;;;;4850040;29;20053;-76
2022/11/02 14:13:01;;;;;;;3.85;2.20;;;;;;;;;;4850563;29;20495;-76
2022/11/02 14:15:30;;;;;;;8.57;2.58;;;;;;;;;;4852116;29;20106;-76
2022/11/02 14:18:07;;;;;;;4.63;2.33;;;;;;;;;;4856928;29;20044;-76
2022/11/02 14:20:36;;;;;;;2.63;1.95;;;;;;;;;;4855412;29;20424;-77
2022/11/02 14:23:09;;;;;;;3.03;2.40;;;;;;;;;;4867064;29;20398;-76
2022/11/02 14:25:53;;;;;;;7.38;2.80;;;;;;;;;;4859434;29;20073;-76
2022/11/02 14:28:27;;;;;;;4.70;2.20;;;;;;;;;;4847291;29;20054;-77
2022/11/02 14:30:55;;;;;;;4.72;2.42;;;;;;;;;;4859103;29;20475;-76
2022/11/02 14:33:31;;;;;;;4.38;2.60;;;;;;;;;;4846839;29;20041;-76
2022/11/02 14:36:07;;;;;;;3.90;2.50;;;;;;;;;;4852272;29;20041;-77
2022/11/02 14:38:42;;;;;;;3.17;2.35;;;;;;;;;;4851732;29;20482;-77
2022/11/02 14:41:12;;;;;;;4.35;2.75;;;;;;;;;;4848913;29;20136;-76
2022/11/02 14:43:42;;;;;;;7.28;3.17;;;;;;;;;;4849077;29;20042;-76
2022/11/02 14:46:22;;;;;;;3.75;2.80;;;;;;;;;;4848567;29;20061;-76
2022/11/02 14:48:53;;;;;;;4.60;3.30;;;;;;;;;;4851174;29;20063;-76
2022/11/02 14:51:38;;;;;;;4.53;4.10;;;;;;;;;;4854505;29;20073;-76
2022/11/02 14:54:15;;;;;;;5.32;3.90;;;;;;;;;;4857247;29;20073;-75
2022/11/02 14:56:47;;;;;;;3.83;3.30;;;;;;;;;;4841574;29;20516;-75
2022/11/02 14:59:24;;;;;;;5.78;3.60;;;;;;;;;;4868373;29;20068;-76
2022/11/02 15:02:24;;;;;;;5.03;3.13;;;;;;;;;;4850041;29;20126;-76
2022/11/02 15:04:53;;;;;;;4.03;3.53;;;;;;;;;;4824928;29;20495;-76
2022/11/02 15:07:23;;;;;;;6.82;3.63;;;;;;;;;;4846334;29;20045;-76
2022/11/02 15:09:56;;;;;;;7.07;3.35;;;;;;;;;;4848405;29;20089;-76
2022/11/02 15:12:29;;;;;;;5.13;3.90;;;;;;;;;;4850162;29;20054;-75
2022/11/02 15:14:57;;;;;;;6.00;4.10;;;;;;;;;;4848565;29;20136;-76
2022/11/02 15:17:24;;;;;;;4.78;3.75;;;;;;;;;;4844837;29;20033;-76
2022/11/02 15:19:52;;;;;;;4.03;3.10;;;;;;;;;;4848290;29;20080;-77
2022/11/02 15:22:28;;;;;;;4.75;3.58;;;;;;;;;;4850152;29;20585;-76